createdAt,value
2023-03-17T00:01:25.056Z,46.21
2023-03-17T00:03:53.055Z,46.49
2023-03-17T00:06:27.855Z,46.45
2023-03-17T00:08:57.520Z,46.65
2023-03-17T00:11:28.724Z,47.34
2023-03-17T00:13:56.690Z,47.05
2023-03-17T00:16:27.069Z,46.72
2023-03-17T00:18:56.692Z,47.55
2023-03-17T00:21:28.655Z,46.28
2023-03-17T00:23:57.248Z,47.43
2023-03-17T00:26:27.650Z,46.74
2023-03-17T00:28:55.883Z,47.41
2023-03-17T00:31:26.240Z,46.85
2023-03-17T00:33:56.181Z,47.31
2023-03-17T00:36:28.083Z,47.11
2023-03-17T00:38:56.361Z,47.95
2023-03-17T00:41:29.470Z,47.03
2023-03-17T00:43:57.661Z,47.57
2023-03-17T00:46:28.701Z,47.88
2023-03-17T00:48:58.445Z,47.10
2023-03-17T00:51:26.434Z,46.37
2023-03-17T00:53:56.990Z,46.48
2023-03-17T00:56:24.938Z,46.81
2023-03-17T00:58:54.853Z,47.37
2023-03-17T01:01:22.824Z,47.04
2023-03-17T01:03:51.276Z,46.97
2023-03-17T01:06:20.196Z,46.89
2023-03-17T01:08:48.444Z,46.94
2023-03-17T01:11:19.054Z,47.36
2023-03-17T01:13:48.973Z,47.10
2023-03-17T01:16:18.383Z,47.37
2023-03-17T01:18:46.598Z,47.54
2023-03-17T01:21:15.366Z,48.07
2023-03-17T01:23:43.751Z,47.38
2023-03-17T01:26:11.763Z,46.62
2023-03-17T01:28:39.706Z,47.66
2023-03-17T01:31:07.555Z,47.89
2023-03-17T01:33:36.795Z,47.71
2023-03-17T01:36:04.821Z,47.46
2023-03-17T01:38:32.769Z,46.95
2023-03-17T01:41:01.485Z,47.05
2023-03-17T01:43:30.974Z,47.09
2023-03-17T01:46:28.018Z,47.71
2023-03-17T01:49:13.320Z,47.30
2023-03-17T01:51:48.061Z,48.06
2023-03-17T01:54:19.790Z,47.53
2023-03-17T01:56:51.755Z,47.81
2023-03-17T01:59:23.755Z,48.62
2023-03-17T02:01:55.538Z,47.62
2023-03-17T02:04:26.741Z,47.55
2023-03-17T02:06:58.385Z,48.03
2023-03-17T02:09:28.736Z,48.49
2023-03-17T02:11:58.819Z,47.98
2023-03-17T02:14:27.395Z,48.60
2023-03-17T02:16:55.529Z,47.95
2023-03-17T02:19:25.369Z,49.23
2023-03-17T02:21:56.845Z,48.26
2023-03-17T02:24:33.067Z,48.56
2023-03-17T02:27:06.007Z,48.55
2023-03-17T02:29:36.028Z,48.75
2023-03-17T02:32:05.554Z,48.43
2023-03-17T02:34:33.606Z,48.28
2023-03-17T02:37:02.974Z,48.22
2023-03-17T02:39:31.863Z,48.54
2023-03-17T02:41:59.744Z,47.12
2023-03-17T02:44:27.761Z,48.02
2023-03-17T02:46:55.681Z,48.20
2023-03-17T02:49:24.751Z,48.21
2023-03-17T02:51:53.256Z,48.22
2023-03-17T02:54:22.719Z,48.40
2023-03-17T02:56:50.705Z,48.40
2023-03-17T02:59:18.594Z,47.74
2023-03-17T03:01:48.526Z,47.74
2023-03-17T03:04:16.591Z,47.79
2023-03-17T03:06:45.693Z,48.15
2023-03-17T03:09:14.770Z,48.76
2023-03-17T03:11:44.093Z,48.39
2023-03-17T03:14:12.717Z,48.51
2023-03-17T03:16:40.664Z,48.10
2023-03-17T03:19:09.010Z,47.91
2023-03-17T03:21:37.672Z,47.54
2023-03-17T03:24:07.227Z,47.73
2023-03-17T03:26:35.134Z,47.38
2023-03-17T03:29:04.921Z,48.37
2023-03-17T03:31:32.880Z,48.36
2023-03-17T03:34:03.913Z,48.66
2023-03-17T03:36:32.360Z,48.71
2023-03-17T03:39:00.988Z,48.34
2023-03-17T03:41:30.296Z,48.15
2023-03-17T03:43:58.388Z,47.28
2023-03-17T03:46:27.747Z,47.78
2023-03-17T03:48:56.270Z,47.94
2023-03-17T03:51:24.182Z,48.59
2023-03-17T03:53:52.440Z,48.26
2023-03-17T03:56:20.385Z,48.15
2023-03-17T03:58:48.560Z,48.70
2023-03-17T04:01:16.567Z,48.21
2023-03-17T04:03:47.292Z,49.00
2023-03-17T04:06:16.204Z,48.64
2023-03-17T04:08:44.362Z,48.27
2023-03-17T04:11:12.323Z,47.86
2023-03-17T04:13:40.362Z,47.99
2023-03-17T04:16:10.033Z,49.06
2023-03-17T04:18:38.023Z,48.91
2023-03-17T04:21:08.345Z,48.82
2023-03-17T04:23:36.314Z,48.62
2023-03-17T04:26:11.099Z,49.38
2023-03-17T04:28:41.932Z,48.43
2023-03-17T04:31:11.561Z,48.53
2023-03-17T04:33:39.415Z,48.53
2023-03-17T04:36:14.483Z,48.71
2023-03-17T04:38:42.317Z,48.61
2023-03-17T04:41:10.200Z,49.12
2023-03-17T04:43:38.189Z,48.13
2023-03-17T04:46:06.713Z,48.41
2023-03-17T04:48:34.619Z,48.91
2023-03-17T04:51:02.559Z,47.67
2023-03-17T04:53:31.956Z,48.34
2023-03-17T04:56:00.005Z,47.67
2023-03-17T04:58:31.103Z,48.08
2023-03-17T05:00:59.429Z,47.64
2023-03-17T05:03:28.565Z,47.81
2023-03-17T05:05:57.389Z,47.58
2023-03-17T05:08:26.272Z,47.54
2023-03-17T05:10:56.064Z,47.39
2023-03-17T05:13:24.522Z,47.51
2023-03-17T05:15:54.306Z,48.14
2023-03-17T05:18:24.157Z,48.02
2023-03-17T05:20:52.594Z,47.73
2023-03-17T05:23:20.812Z,46.69
2023-03-17T05:25:48.732Z,46.79
2023-03-17T05:28:18.258Z,46.25
2023-03-17T05:30:47.966Z,46.48
2023-03-17T05:33:16.454Z,46.81
2023-03-17T05:35:45.420Z,46.70
2023-03-17T05:38:14.338Z,46.81
2023-03-17T05:40:42.790Z,46.65
2023-03-17T05:43:11.230Z,46.72
2023-03-17T05:45:41.252Z,46.23
2023-03-17T05:48:09.275Z,46.71
2023-03-17T05:50:37.271Z,46.38
2023-03-17T05:53:06.345Z,46.73
2023-03-17T05:55:34.295Z,46.76
2023-03-17T05:58:04.570Z,46.74
2023-03-17T06:00:32.936Z,45.87
2023-03-17T06:03:03.884Z,45.04
2023-03-17T06:05:32.132Z,45.08
2023-03-17T06:08:00.009Z,45.54
2023-03-17T06:10:29.134Z,45.19
2023-03-17T06:12:57.214Z,45.71
2023-03-17T06:15:35.751Z,46.46
2023-03-17T06:18:05.720Z,46.09
2023-03-17T06:20:33.992Z,46.26
2023-03-17T06:23:05.343Z,46.10
2023-03-17T06:25:34.860Z,45.65
2023-03-17T06:28:03.816Z,45.68
2023-03-17T06:30:32.830Z,45.02
2023-03-17T06:33:01.247Z,44.91
2023-03-17T06:35:31.560Z,45.16
2023-03-17T06:38:00.956Z,44.67
2023-03-17T06:40:29.297Z,44.67
2023-03-17T06:42:57.257Z,44.43
2023-03-17T06:45:25.249Z,44.85
2023-03-17T06:47:53.198Z,44.34
2023-03-17T06:50:21.421Z,44.12
2023-03-17T06:52:50.773Z,44.43
2023-03-17T06:55:19.838Z,43.70
2023-03-17T06:57:49.841Z,44.41
2023-03-17T07:00:20.094Z,44.32
2023-03-17T07:02:49.446Z,43.52
2023-03-17T07:05:17.966Z,43.20
2023-03-17T07:07:46.196Z,43.03
2023-03-17T07:10:17.383Z,43.25
2023-03-17T07:12:45.804Z,43.03
2023-03-17T07:15:14.000Z,42.49
2023-03-17T07:17:42.880Z,43.00
2023-03-17T07:20:11.953Z,42.31
2023-03-17T07:22:39.847Z,42.43
2023-03-17T07:25:09.718Z,41.77
2023-03-17T07:27:39.268Z,41.19
2023-03-17T07:30:08.704Z,40.36
2023-03-17T07:32:36.663Z,40.14
2023-03-17T07:35:05.096Z,40.99
2023-03-17T07:37:39.696Z,41.23
2023-03-17T07:40:10.281Z,40.73
2023-03-17T07:42:42.661Z,39.96
2023-03-17T07:45:12.900Z,40.12
2023-03-17T07:47:40.867Z,39.73
2023-03-17T07:50:09.683Z,39.52
2023-03-17T07:52:38.033Z,40.61
2023-03-17T07:55:08.559Z,40.09
2023-03-17T07:57:36.553Z,40.36
2023-03-17T08:00:10.138Z,39.54
2023-03-17T08:02:41.069Z,39.15
2023-03-17T08:05:13.248Z,38.83
2023-03-17T08:07:41.660Z,37.92
2023-03-17T08:10:11.630Z,37.56
2023-03-17T08:12:40.363Z,38.19
2023-03-17T08:15:10.957Z,37.32
2023-03-17T08:17:39.788Z,37.56
2023-03-17T08:20:09.773Z,38.40
2023-03-17T08:22:37.891Z,38.24
2023-03-17T08:25:06.718Z,37.56
2023-03-17T08:27:34.868Z,37.71
2023-03-17T08:30:04.291Z,38.58
2023-03-17T08:32:34.150Z,38.95
2023-03-17T08:35:02.603Z,39.12
2023-03-17T08:37:30.621Z,38.72
2023-03-17T08:39:58.998Z,37.62
2023-03-17T08:42:26.946Z,38.60
2023-03-17T08:44:54.796Z,39.98
2023-03-17T08:47:23.565Z,39.22
2023-03-17T08:49:53.324Z,38.84
2023-03-17T08:52:21.414Z,38.34
2023-03-17T08:54:49.611Z,38.59
2023-03-17T08:57:17.998Z,38.16
2023-03-17T08:59:47.042Z,38.07
2023-03-17T09:02:16.032Z,39.27
2023-03-17T09:04:44.029Z,38.44
2023-03-17T09:07:13.373Z,39.37
2023-03-17T09:09:41.242Z,39.20
2023-03-17T09:12:10.098Z,39.00
2023-03-17T09:14:43.824Z,38.86
2023-03-17T09:17:14.599Z,38.39
2023-03-17T09:19:43.445Z,38.41
2023-03-17T09:22:16.598Z,37.27
2023-03-17T09:24:44.513Z,36.60
2023-03-17T09:27:12.763Z,37.17
2023-03-17T09:29:41.241Z,36.86
2023-03-17T09:32:09.696Z,35.60
2023-03-17T09:34:37.661Z,35.48
2023-03-17T09:37:05.645Z,36.18
2023-03-17T09:39:34.954Z,35.74
2023-03-17T09:42:10.886Z,35.09
2023-03-17T09:44:56.752Z,35.46
2023-03-17T09:47:51.258Z,35.64
2023-03-17T09:50:23.780Z,35.97
2023-03-17T09:52:53.049Z,35.08
2023-03-17T09:55:28.382Z,35.12
2023-03-17T09:57:58.824Z,34.66
2023-03-17T10:00:31.106Z,34.60
2023-03-17T10:03:00.006Z,33.77
2023-03-17T10:05:30.255Z,33.29
2023-03-17T10:08:09.100Z,32.69
2023-03-17T10:10:48.179Z,32.50
2023-03-17T10:13:29.489Z,32.27
2023-03-17T10:16:04.430Z,33.67
2023-03-17T10:18:44.467Z,32.69
2023-03-17T10:21:16.949Z,32.82
2023-03-17T10:23:46.751Z,32.15
2023-03-17T10:26:27.171Z,32.49
2023-03-17T10:28:55.848Z,33.03
2023-03-17T10:31:29.934Z,32.71
2023-03-17T10:34:05.296Z,32.02
2023-03-17T10:36:37.643Z,32.64
2023-03-17T10:39:08.053Z,30.99
2023-03-17T10:41:41.170Z,31.06
2023-03-17T10:44:11.163Z,31.87
2023-03-17T10:46:40.141Z,31.79
2023-03-17T10:49:10.782Z,31.61
2023-03-17T10:51:40.536Z,31.26
2023-03-17T10:54:12.084Z,31.39
2023-03-17T10:56:43.196Z,30.42
2023-03-17T10:59:19.462Z,31.56
2023-03-17T11:01:52.535Z,32.81
2023-03-17T11:04:27.981Z,32.47
2023-03-17T11:06:57.817Z,32.09
2023-03-17T11:09:29.161Z,31.78
2023-03-17T11:12:07.440Z,31.20
2023-03-17T11:14:35.680Z,31.05
2023-03-17T11:17:05.671Z,31.31
2023-03-17T11:19:43.859Z,30.89
2023-03-17T11:22:17.028Z,31.88
2023-03-17T11:24:55.434Z,31.55
2023-03-17T11:27:32.456Z,31.18
2023-03-17T11:30:15.233Z,31.27
2023-03-17T11:32:48.054Z,30.65
2023-03-17T11:35:34.305Z,29.69
2023-03-17T11:38:16.941Z,30.05
2023-03-17T11:41:01.096Z,29.82
2023-03-17T11:43:36.632Z,30.37
2023-03-17T11:46:10.499Z,30.25
2023-03-17T11:48:49.871Z,30.04
2023-03-17T11:51:27.600Z,31.06
2023-03-17T11:54:09.510Z,29.98
2023-03-17T11:56:42.834Z,30.90
2023-03-17T11:59:32.905Z,30.92
2023-03-17T12:02:07.245Z,30.89
2023-03-17T12:04:39.182Z,31.31
2023-03-17T12:07:17.897Z,30.78
2023-03-17T12:09:49.775Z,31.54
2023-03-17T12:12:30.991Z,30.81
2023-03-17T12:15:05.221Z,31.65
2023-03-17T12:17:38.332Z,31.44
2023-03-17T12:20:16.482Z,31.97
2023-03-17T12:22:48.846Z,32.09
2023-03-17T12:25:24.626Z,31.59
2023-03-17T12:28:01.297Z,30.94
2023-03-17T12:30:36.067Z,30.71
2023-03-17T12:33:13.241Z,31.36
2023-03-17T12:35:41.279Z,30.92
2023-03-17T12:38:13.650Z,30.84
2023-03-17T12:41:05.572Z,32.10
2023-03-17T12:43:48.237Z,32.03
2023-03-17T12:46:34.530Z,31.66
2023-03-17T12:49:32.946Z,31.55
2023-03-17T12:52:14.480Z,31.43
2023-03-17T12:54:47.863Z,31.66
2023-03-17T12:57:18.123Z,31.55
2023-03-17T12:59:49.439Z,31.83
2023-03-17T13:02:32.140Z,31.06
2023-03-17T13:05:01.752Z,30.92
2023-03-17T13:07:37.876Z,30.69
2023-03-17T13:10:19.917Z,31.33
2023-03-17T13:13:23.178Z,31.63
2023-03-17T13:16:00.557Z,31.74
2023-03-17T13:18:47.844Z,31.63
2023-03-17T13:21:18.640Z,32.65
2023-03-17T13:23:48.952Z,31.60
2023-03-17T13:26:20.882Z,32.10
2023-03-17T13:28:50.492Z,31.99
2023-03-17T13:31:36.706Z,32.59
2023-03-17T13:34:15.176Z,32.22
2023-03-17T13:36:52.942Z,31.93
2023-03-17T13:39:58.267Z,31.88
2023-03-17T13:42:57.209Z,31.71
2023-03-17T13:45:37.207Z,31.15
2023-03-17T13:48:33.692Z,31.26
2023-03-17T13:51:14.988Z,31.48
2023-03-17T13:53:48.777Z,31.55
2023-03-17T13:56:19.820Z,31.18
2023-03-17T13:59:05.720Z,31.87
2023-03-17T14:01:40.743Z,32.03
2023-03-17T14:04:19.416Z,31.72
2023-03-17T14:06:53.096Z,31.58
2023-03-17T14:09:30.762Z,31.31
2023-03-17T14:12:01.450Z,31.67
2023-03-17T14:14:38.261Z,32.17
2023-03-17T14:17:13.162Z,32.41
2023-03-17T14:19:43.299Z,32.45
2023-03-17T14:22:24.604Z,31.92
2023-03-17T14:24:54.229Z,32.10
2023-03-17T14:27:25.009Z,32.59
2023-03-17T14:29:53.344Z,31.47
2023-03-17T14:32:24.221Z,31.28
2023-03-17T14:34:57.467Z,31.65
2023-03-17T14:37:27.867Z,31.77
2023-03-17T14:39:58.111Z,31.42
2023-03-17T14:42:31.077Z,31.82
2023-03-17T14:45:03.816Z,31.67
2023-03-17T14:47:39.692Z,32.26
2023-03-17T14:50:17.376Z,32.91
2023-03-17T14:52:46.757Z,33.05
2023-03-17T14:55:17.042Z,32.05
2023-03-17T14:57:50.988Z,32.37
2023-03-17T15:00:38.198Z,32.19
2023-03-17T15:03:18.616Z,32.32
2023-03-17T15:05:47.448Z,32.34
2023-03-17T15:08:42.633Z,32.42
2023-03-17T15:11:25.344Z,32.51
2023-03-17T15:13:58.134Z,32.43
2023-03-17T15:16:30.171Z,32.48
2023-03-17T15:19:08.162Z,32.80
2023-03-17T15:21:39.570Z,32.28
2023-03-17T15:24:25.778Z,31.95
2023-03-17T15:27:01.438Z,32.62
2023-03-17T15:29:30.273Z,32.60
2023-03-17T15:32:12.772Z,32.51
2023-03-17T15:34:40.942Z,32.72
2023-03-17T15:37:16.927Z,32.29
2023-03-17T15:39:46.862Z,32.82
2023-03-17T15:42:15.492Z,32.33
2023-03-17T15:44:43.395Z,32.59
2023-03-17T15:47:14.808Z,32.28
2023-03-17T15:49:45.551Z,32.33
2023-03-17T15:52:18.868Z,32.40
2023-03-17T15:54:48.543Z,32.54
2023-03-17T15:57:16.432Z,32.42
2023-03-17T15:59:44.805Z,32.22
2023-03-17T16:02:27.650Z,31.88
2023-03-17T16:05:00.303Z,31.79
2023-03-17T16:07:31.241Z,31.75
2023-03-17T16:10:00.536Z,32.14
2023-03-17T16:12:28.514Z,32.07
2023-03-17T16:15:00.747Z,32.07
2023-03-17T16:17:33.051Z,32.34
2023-03-17T16:20:01.233Z,31.84
2023-03-17T16:22:39.671Z,32.34
2023-03-17T16:25:20.490Z,32.95
2023-03-17T16:27:49.630Z,32.33
2023-03-17T16:30:19.346Z,31.87
2023-03-17T16:32:47.615Z,32.35
2023-03-17T16:35:17.644Z,32.11
2023-03-17T16:37:45.756Z,32.48
2023-03-17T16:40:27.056Z,31.81
2023-03-17T16:42:55.762Z,31.97
2023-03-17T16:45:28.607Z,32.30
2023-03-17T16:47:58.043Z,32.90
2023-03-17T16:50:30.089Z,32.97
2023-03-17T16:52:58.928Z,32.80
2023-03-17T16:55:30.134Z,32.90
2023-03-17T16:58:01.562Z,32.81
2023-03-17T17:00:31.658Z,33.25
2023-03-17T17:02:59.921Z,33.00
2023-03-17T17:05:29.890Z,33.03
2023-03-17T17:07:58.996Z,33.30
2023-03-17T17:10:30.611Z,33.42
2023-03-17T17:12:58.794Z,33.79
2023-03-17T17:15:27.100Z,33.57
2023-03-17T17:17:58.115Z,33.93
2023-03-17T17:20:30.925Z,33.33
2023-03-17T17:23:00.040Z,33.34
2023-03-17T17:25:30.265Z,33.12
2023-03-17T17:27:59.391Z,33.22
2023-03-17T17:30:30.429Z,33.33
2023-03-17T17:33:00.490Z,33.90
2023-03-17T17:35:32.566Z,34.16
2023-03-17T17:38:01.809Z,33.96
2023-03-17T17:40:32.349Z,34.18
2023-03-17T17:43:01.804Z,34.22
2023-03-17T17:45:29.756Z,34.14
2023-03-17T17:47:57.610Z,34.08
2023-03-17T17:50:28.461Z,34.35
2023-03-17T17:53:01.592Z,34.40
2023-03-17T17:55:30.902Z,33.94
2023-03-17T17:57:58.766Z,34.37
2023-03-17T18:00:26.752Z,34.36
2023-03-17T18:02:54.685Z,34.58
2023-03-17T18:05:23.002Z,34.97
2023-03-17T18:07:50.912Z,34.51
2023-03-17T18:10:22.287Z,35.13
2023-03-17T18:12:51.783Z,34.86
2023-03-17T18:15:19.685Z,34.84
2023-03-17T18:17:51.605Z,35.01
2023-03-17T18:20:21.784Z,35.13
2023-03-17T18:22:50.283Z,35.32
2023-03-17T18:25:19.388Z,35.46
2023-03-17T18:27:48.209Z,35.31
2023-03-17T18:30:22.206Z,35.49
2023-03-17T18:32:53.405Z,35.59
2023-03-17T18:35:23.129Z,35.74
2023-03-17T18:37:51.904Z,36.02
2023-03-17T18:40:22.215Z,35.94
2023-03-17T18:42:50.131Z,36.15
2023-03-17T18:45:19.790Z,36.29
2023-03-17T18:47:47.755Z,36.56
2023-03-17T18:50:18.635Z,36.04
2023-03-17T18:52:47.116Z,36.12
2023-03-17T18:55:16.264Z,36.39
2023-03-17T18:57:45.154Z,36.22
2023-03-17T19:00:15.272Z,36.50
2023-03-17T19:02:47.368Z,36.67
2023-03-17T19:05:16.168Z,36.80
2023-03-17T19:07:44.504Z,36.84
2023-03-17T19:10:13.966Z,36.48
2023-03-17T19:12:42.474Z,36.13
2023-03-17T19:15:12.590Z,36.97
2023-03-17T19:17:41.023Z,36.70
2023-03-17T19:20:13.974Z,36.66
2023-03-17T19:22:41.968Z,36.73
2023-03-17T19:25:10.898Z,36.66
2023-03-17T19:27:38.839Z,36.42
2023-03-17T19:30:08.176Z,36.57
2023-03-17T19:32:36.192Z,36.77
2023-03-17T19:35:04.524Z,36.29
2023-03-17T19:37:33.796Z,36.64
2023-03-17T19:40:01.792Z,36.65
2023-03-17T19:42:29.710Z,36.79
2023-03-17T19:44:58.318Z,36.86
2023-03-17T19:47:28.311Z,37.02
2023-03-17T19:49:57.664Z,36.60
2023-03-17T19:52:25.715Z,36.73
2023-03-17T19:54:55.070Z,37.12
2023-03-17T19:57:22.979Z,37.34
2023-03-17T19:59:51.238Z,37.01
2023-03-17T20:02:19.527Z,37.08
2023-03-17T20:04:47.474Z,37.35
2023-03-17T20:07:15.477Z,37.49
2023-03-17T20:09:44.744Z,38.12
2023-03-17T20:12:17.001Z,38.41
2023-03-17T20:14:44.986Z,37.90
2023-03-17T20:17:14.528Z,38.37
2023-03-17T20:19:42.425Z,38.37
2023-03-17T20:22:11.596Z,38.53
2023-03-17T20:24:39.530Z,38.14
2023-03-17T20:27:08.415Z,39.08
2023-03-17T20:29:38.437Z,38.55
2023-03-17T20:32:06.582Z,38.72
2023-03-17T20:34:34.710Z,39.11
2023-03-17T20:37:03.908Z,39.29
2023-03-17T20:39:32.423Z,39.22
2023-03-17T20:42:01.580Z,39.46
2023-03-17T20:44:29.415Z,39.30
2023-03-17T20:46:59.079Z,40.20
2023-03-17T20:49:27.736Z,39.79
2023-03-17T20:51:56.107Z,40.08
2023-03-17T20:54:24.341Z,40.08
2023-03-17T20:56:55.881Z,39.50
2023-03-17T20:59:24.712Z,40.11
2023-03-17T21:01:52.632Z,39.86
2023-03-17T21:04:22.362Z,39.42
2023-03-17T21:06:50.244Z,39.86
2023-03-17T21:09:18.144Z,40.24
2023-03-17T21:11:46.515Z,40.55
2023-03-17T21:14:14.829Z,40.70
2023-03-17T21:16:44.848Z,40.95
2023-03-17T21:19:15.202Z,41.46
2023-03-17T21:21:44.699Z,41.30
2023-03-17T21:24:24.785Z,41.45
2023-03-17T21:26:52.633Z,41.47
2023-03-17T21:29:21.299Z,41.26
2023-03-17T21:31:49.253Z,41.80
2023-03-17T21:34:17.267Z,41.73
2023-03-17T21:36:46.576Z,41.90
2023-03-17T21:39:14.434Z,41.61
2023-03-17T21:41:42.308Z,42.19
2023-03-17T21:44:11.905Z,42.16
2023-03-17T21:46:39.951Z,41.90
2023-03-17T21:49:08.098Z,42.11
2023-03-17T21:51:36.268Z,42.19
2023-03-17T21:54:06.424Z,42.41
2023-03-17T21:56:34.532Z,42.50
2023-03-17T21:59:02.510Z,42.37
2023-03-17T22:01:30.454Z,42.78
2023-03-17T22:03:59.595Z,42.77
2023-03-17T22:06:29.386Z,42.44
2023-03-17T22:08:57.468Z,42.49
2023-03-17T22:11:26.941Z,42.84
2023-03-17T22:13:54.797Z,42.45
2023-03-17T22:16:22.730Z,42.71
2023-03-17T22:18:50.670Z,42.52
2023-03-17T22:21:19.359Z,42.50
2023-03-17T22:23:47.807Z,42.70
2023-03-17T22:26:18.013Z,42.72
2023-03-17T22:28:49.116Z,43.00
2023-03-17T22:31:19.094Z,42.75
2023-03-17T22:33:48.473Z,42.90
2023-03-17T22:36:17.895Z,43.50
2023-03-17T22:38:46.801Z,43.29
2023-03-17T22:41:17.838Z,43.47
2023-03-17T22:43:47.493Z,43.57
2023-03-17T22:46:16.330Z,43.71
2023-03-17T22:48:44.408Z,43.62
2023-03-17T22:51:14.401Z,43.66
2023-03-17T22:53:42.589Z,43.82
2023-03-17T22:56:11.761Z,44.30
2023-03-17T22:58:40.488Z,43.87
2023-03-17T23:01:12.255Z,43.74
2023-03-17T23:03:40.849Z,43.99
2023-03-17T23:06:09.639Z,44.01
2023-03-17T23:08:39.468Z,44.40
2023-03-17T23:11:11.696Z,43.95
2023-03-17T23:13:41.515Z,44.05
2023-03-17T23:16:11.162Z,43.95
2023-03-17T23:18:39.241Z,44.06
2023-03-17T23:21:08.733Z,43.84
2023-03-17T23:23:38.070Z,44.01
2023-03-17T23:26:06.748Z,43.84
2023-03-17T23:28:34.876Z,43.84
2023-03-17T23:31:03.860Z,43.93
2023-03-17T23:33:34.003Z,43.40
2023-03-17T23:36:02.300Z,43.54
2023-03-17T23:38:30.285Z,43.76
2023-03-17T23:40:58.583Z,44.15
2023-03-17T23:43:27.412Z,43.79
2023-03-17T23:45:55.303Z,43.69
2023-03-17T23:48:23.458Z,43.46
2023-03-17T23:50:54.256Z,42.92
2023-03-17T23:53:24.041Z,42.95
2023-03-17T23:55:52.779Z,43.15
2023-03-17T23:58:21.186Z,42.66
